createdAt,value
2018-09-27T00:01:44.768Z,10.21
2018-09-27T00:04:14.880Z,10.57
2018-09-27T00:06:44.983Z,10.51
2018-09-27T00:09:14.897Z,10.64
2018-09-27T00:11:44.903Z,10.45
2018-09-27T00:14:14.953Z,10.28
2018-09-27T00:16:44.992Z,10.26
2018-09-27T00:19:14.951Z,10.55
2018-09-27T00:21:44.976Z,10.48
2018-09-27T00:24:14.955Z,10.79
2018-09-27T00:26:44.983Z,9.93
2018-09-27T00:29:14.932Z,9.76
2018-09-27T00:31:45.107Z,9.32
2018-09-27T00:34:15.154Z,9.48
2018-09-27T00:36:45.214Z,9.78
2018-09-27T00:39:15.239Z,10.05
2018-09-27T00:41:45.274Z,10.50
2018-09-27T00:44:15.296Z,10.74
2018-09-27T00:46:45.321Z,9.94
2018-09-27T00:49:15.337Z,9.65
2018-09-27T00:51:45.347Z,10.20
2018-09-27T00:54:15.394Z,10.51
2018-09-27T00:56:45.421Z,10.31
2018-09-27T00:59:15.431Z,10.45
2018-09-27T01:01:45.554Z,10.49
2018-09-27T01:04:15.601Z,9.56
2018-09-27T01:06:45.595Z,9.31
2018-09-27T01:09:15.704Z,9.73
2018-09-27T01:11:45.913Z,9.80
2018-09-27T01:14:15.972Z,10.02
2018-09-27T01:16:46.028Z,9.76
2018-09-27T01:19:16.135Z,9.92
2018-09-27T01:21:46.174Z,10.26
2018-09-27T01:24:16.152Z,9.72
2018-09-27T01:26:46.168Z,9.91
2018-09-27T01:29:16.132Z,9.57
2018-09-27T01:31:46.151Z,9.50
2018-09-27T01:34:16.142Z,9.14
2018-09-27T01:36:46.140Z,9.41
2018-09-27T01:39:16.088Z,9.37
2018-09-27T01:41:46.076Z,9.51
2018-09-27T01:44:16.051Z,9.79
2018-09-27T01:46:46.106Z,9.97
2018-09-27T01:49:16.134Z,9.79
2018-09-27T01:51:46.153Z,9.32
2018-09-27T01:54:16.058Z,9.74
2018-09-27T01:56:46.078Z,10.02
2018-09-27T01:59:16.103Z,9.42
2018-09-27T02:01:46.090Z,9.81
2018-09-27T02:04:16.091Z,10.01
2018-09-27T02:06:46.035Z,9.24
2018-09-27T02:09:16.083Z,9.29
2018-09-27T02:11:46.153Z,9.58
2018-09-27T02:14:16.108Z,9.53
2018-09-27T02:16:46.092Z,8.74
2018-09-27T02:19:16.167Z,8.69
2018-09-27T02:21:46.281Z,9.39
2018-09-27T02:24:16.285Z,9.55
2018-09-27T02:26:46.286Z,9.19
2018-09-27T02:29:16.220Z,9.57
2018-09-27T02:31:46.312Z,9.84
2018-09-27T02:34:16.334Z,9.38
2018-09-27T02:36:46.287Z,9.54
2018-09-27T02:39:16.283Z,9.51
2018-09-27T02:41:46.268Z,9.13
2018-09-27T02:44:16.233Z,9.08
2018-09-27T02:46:46.211Z,9.24
2018-09-27T02:49:16.208Z,9.48
2018-09-27T02:51:46.150Z,9.72
2018-09-27T02:54:16.141Z,9.80
2018-09-27T02:56:46.181Z,9.85
2018-09-27T02:59:16.167Z,9.04
2018-09-27T03:01:47.117Z,8.85
2018-09-27T03:04:17.175Z,9.36
2018-09-27T03:06:47.185Z,9.55
2018-09-27T03:09:17.212Z,9.67
2018-09-27T03:11:48.127Z,9.52
2018-09-27T03:14:18.134Z,9.45
2018-09-27T03:16:48.300Z,9.53
2018-09-27T03:19:19.408Z,9.51
2018-09-27T03:21:50.111Z,9.43
2018-09-27T03:24:20.711Z,9.16
2018-09-27T03:26:51.612Z,9.30
2018-09-27T03:29:22.545Z,9.39
2018-09-27T03:31:52.501Z,9.12
2018-09-27T03:34:22.490Z,9.11
2018-09-27T03:36:52.508Z,9.30
2018-09-27T03:39:22.511Z,9.46
2018-09-27T03:41:52.464Z,9.49
2018-09-27T03:44:22.605Z,8.92
2018-09-27T03:46:52.697Z,8.54
2018-09-27T03:49:22.639Z,8.39
2018-09-27T03:51:52.617Z,8.42
2018-09-27T03:54:22.675Z,8.57
2018-09-27T03:56:52.631Z,8.76
2018-09-27T03:59:22.544Z,8.76
2018-09-27T04:01:52.611Z,8.96
2018-09-27T04:04:22.697Z,8.95
2018-09-27T04:06:52.679Z,8.76
2018-09-27T04:09:23.896Z,8.86
2018-09-27T04:11:54.591Z,9.10
2018-09-27T04:14:24.603Z,8.70
2018-09-27T04:16:54.606Z,8.69
2018-09-27T04:19:24.552Z,9.00
2018-09-27T04:21:54.601Z,8.88
2018-09-27T04:24:24.558Z,8.68
2018-09-27T04:26:54.532Z,8.57
2018-09-27T04:29:24.481Z,8.35
2018-09-27T04:31:54.469Z,8.41
2018-09-27T04:34:24.632Z,8.55
2018-09-27T04:36:54.635Z,8.42
2018-09-27T04:39:24.622Z,8.51
2018-09-27T04:41:54.619Z,8.37
2018-09-27T04:44:24.565Z,8.76
2018-09-27T04:46:54.550Z,9.04
2018-09-27T04:49:24.552Z,8.53
2018-09-27T04:51:54.584Z,8.37
2018-09-27T04:54:24.713Z,8.53
2018-09-27T04:56:54.691Z,8.61
2018-09-27T04:59:24.809Z,8.35
2018-09-27T05:01:54.786Z,8.36
2018-09-27T05:04:24.726Z,8.56
2018-09-27T05:06:54.736Z,8.14
2018-09-27T05:09:24.732Z,8.61
2018-09-27T05:11:54.720Z,8.59
2018-09-27T05:14:24.684Z,8.50
2018-09-27T05:16:54.694Z,8.50
2018-09-27T05:19:24.699Z,8.41
2018-09-27T05:21:54.679Z,8.41
2018-09-27T05:24:24.671Z,8.52
2018-09-27T05:26:54.707Z,8.06
2018-09-27T05:29:24.797Z,8.06
2018-09-27T05:31:54.763Z,8.03
2018-09-27T05:34:24.800Z,8.02
2018-09-27T05:36:54.820Z,8.14
2018-09-27T05:39:24.805Z,8.08
2018-09-27T05:41:54.812Z,7.96
2018-09-27T05:44:24.752Z,8.06
2018-09-27T05:46:54.704Z,8.33
2018-09-27T05:49:24.676Z,8.45
2018-09-27T05:51:54.647Z,8.44
2018-09-27T05:54:24.616Z,8.57
2018-09-27T05:56:54.618Z,8.44
2018-09-27T05:59:24.627Z,8.55
2018-09-27T06:01:54.592Z,8.57
2018-09-27T06:04:24.567Z,8.67
2018-09-27T06:06:54.637Z,8.48
2018-09-27T06:09:24.951Z,8.58
2018-09-27T06:11:54.951Z,8.70
2018-09-27T06:14:24.876Z,8.70
2018-09-27T06:16:54.896Z,8.66
2018-09-27T06:19:24.798Z,8.45
2018-09-27T06:21:54.668Z,8.37
2018-09-27T06:24:24.663Z,8.47
2018-09-27T06:26:54.530Z,8.56
2018-09-27T06:29:24.404Z,8.70
2018-09-27T06:31:54.363Z,8.78
2018-09-27T06:34:24.470Z,8.84
2018-09-27T06:36:54.622Z,8.92
2018-09-27T06:39:24.543Z,8.98
2018-09-27T06:41:54.517Z,9.02
2018-09-27T06:44:24.586Z,9.04
2018-09-27T06:46:54.450Z,9.07
2018-09-27T06:49:24.460Z,9.08
2018-09-27T06:51:54.310Z,9.12
2018-09-27T06:54:24.185Z,9.13
2018-09-27T06:56:54.263Z,9.13
2018-09-27T06:59:24.245Z,9.15
2018-09-27T07:01:54.159Z,9.19
2018-09-27T07:04:24.183Z,9.19
2018-09-27T07:06:54.217Z,9.25
2018-09-27T07:09:24.064Z,9.27
2018-09-27T07:11:54.166Z,9.30
2018-09-27T07:14:24.061Z,9.33
2018-09-27T07:16:54.143Z,9.38
2018-09-27T07:19:24.098Z,9.46
2018-09-27T07:21:54.004Z,9.49
2018-09-27T07:24:24.043Z,9.52
2018-09-27T07:26:54.090Z,9.50
2018-09-27T07:29:23.975Z,9.53
2018-09-27T07:31:53.911Z,9.59
2018-09-27T07:34:23.989Z,9.63
2018-09-27T07:36:53.982Z,9.67
2018-09-27T07:39:23.933Z,9.72
2018-09-27T07:41:53.907Z,9.78
2018-09-27T07:44:23.898Z,9.82
2018-09-27T07:46:53.869Z,9.86
2018-09-27T07:49:23.796Z,9.94
2018-09-27T07:51:53.757Z,9.99
2018-09-27T07:54:23.683Z,10.07
2018-09-27T07:56:53.693Z,10.25
2018-09-27T07:59:23.642Z,10.38
2018-09-27T08:01:53.629Z,10.44
2018-09-27T08:04:23.543Z,10.45
2018-09-27T08:06:53.487Z,10.49
2018-09-27T08:09:23.451Z,10.47
2018-09-27T08:11:53.431Z,10.56
2018-09-27T08:14:23.358Z,10.63
2018-09-27T08:16:53.304Z,10.80
2018-09-27T08:19:23.288Z,10.80
2018-09-27T08:21:53.270Z,10.84
2018-09-27T08:24:23.192Z,11.15
2018-09-27T08:26:53.236Z,11.27
2018-09-27T08:29:23.186Z,11.22
2018-09-27T08:31:53.183Z,11.23
2018-09-27T08:34:23.093Z,11.45
2018-09-27T08:36:53.060Z,11.43
2018-09-27T08:39:23.048Z,11.58
2018-09-27T08:41:53.069Z,11.70
2018-09-27T08:44:23.096Z,11.80
2018-09-27T08:46:52.922Z,11.97
2018-09-27T08:49:22.805Z,12.16
2018-09-27T08:51:52.691Z,12.39
2018-09-27T08:54:22.646Z,12.72
2018-09-27T08:56:52.546Z,12.45
2018-09-27T08:59:22.632Z,12.68
2018-09-27T09:01:52.580Z,13.06
2018-09-27T09:04:23.337Z,12.77
2018-09-27T09:06:53.386Z,13.42
2018-09-27T09:09:23.413Z,13.17
2018-09-27T09:11:53.335Z,13.69
2018-09-27T09:14:23.425Z,13.56
2018-09-27T09:16:53.393Z,13.66
2018-09-27T09:19:23.427Z,13.68
2018-09-27T09:21:53.540Z,13.63
2018-09-27T09:24:23.600Z,13.78
2018-09-27T09:26:53.783Z,14.51
2018-09-27T09:29:23.933Z,14.91
2018-09-27T09:31:54.074Z,14.90
2018-09-27T09:34:24.161Z,15.24
2018-09-27T09:36:54.282Z,14.60
2018-09-27T09:39:24.392Z,14.73
2018-09-27T09:41:54.406Z,14.53
2018-09-27T09:44:24.905Z,14.51
2018-09-27T09:46:55.363Z,15.10
2018-09-27T09:49:26.017Z,15.23
2018-09-27T09:51:56.565Z,15.18
2018-09-27T09:54:26.641Z,15.84
2018-09-27T09:56:56.699Z,15.53
2018-09-27T09:59:26.915Z,15.82
2018-09-27T10:01:56.876Z,16.52
2018-09-27T10:04:26.970Z,16.36
2018-09-27T10:06:57.129Z,15.70
2018-09-27T10:09:27.157Z,16.08
2018-09-27T10:11:57.187Z,16.18
2018-09-27T10:14:27.156Z,16.35
2018-09-27T10:16:57.264Z,16.70
2018-09-27T10:19:27.190Z,16.40
2018-09-27T10:21:57.200Z,16.72
2018-09-27T10:24:27.127Z,17.02
2018-09-27T10:26:57.159Z,17.22
2018-09-27T10:29:27.038Z,17.27
2018-09-27T10:31:56.953Z,17.58
2018-09-27T10:34:26.867Z,17.41
2018-09-27T10:36:56.865Z,17.82
2018-09-27T10:39:26.706Z,17.42
2018-09-27T10:41:56.632Z,17.61
2018-09-27T10:44:26.596Z,17.42
2018-09-27T10:46:56.579Z,17.66
2018-09-27T10:49:26.577Z,18.35
2018-09-27T10:51:56.584Z,18.17
2018-09-27T10:54:26.496Z,18.62
2018-09-27T10:56:58.210Z,18.16
2018-09-27T10:59:29.014Z,18.46
2018-09-27T11:01:58.868Z,19.14
2018-09-27T11:04:28.835Z,18.76
2018-09-27T11:06:59.009Z,18.72
2018-09-27T11:09:30.328Z,18.49
2018-09-27T11:12:00.274Z,18.21
2018-09-27T11:14:30.231Z,19.13
2018-09-27T11:17:00.187Z,18.97
2018-09-27T11:19:29.959Z,19.17
2018-09-27T11:21:59.712Z,18.83
2018-09-27T11:24:29.740Z,19.00
2018-09-27T11:26:59.596Z,18.99
2018-09-27T11:29:34.435Z,18.81
2018-09-27T11:32:09.608Z,19.12
2018-09-27T11:34:39.450Z,19.56
2018-09-27T11:37:09.291Z,19.19
2018-09-27T11:39:39.165Z,19.56
2018-09-27T11:42:09.211Z,19.44
2018-09-27T11:44:39.208Z,19.88
2018-09-27T11:47:09.182Z,20.10
2018-09-27T11:49:39.207Z,19.72
2018-09-27T11:52:08.950Z,20.19
2018-09-27T11:54:38.942Z,19.79
2018-09-27T11:57:08.960Z,20.08
2018-09-27T11:59:38.880Z,20.00
2018-09-27T12:02:08.811Z,20.35
2018-09-27T12:04:38.878Z,20.25
2018-09-27T12:07:08.898Z,20.72
2018-09-27T12:09:38.888Z,20.83
2018-09-27T12:12:08.958Z,20.40
2018-09-27T12:14:38.844Z,20.42
2018-09-27T12:17:08.900Z,20.98
2018-09-27T12:19:39.022Z,21.22
2018-09-27T12:22:08.886Z,21.00
2018-09-27T12:24:38.923Z,20.92
2018-09-27T12:27:09.228Z,20.98
2018-09-27T12:29:39.148Z,20.66
2018-09-27T12:32:09.041Z,20.77
2018-09-27T12:34:38.850Z,20.81
2018-09-27T12:37:09.267Z,21.40
2018-09-27T12:39:39.212Z,21.44
2018-09-27T12:42:09.418Z,21.35
2018-09-27T12:44:39.117Z,21.32
2018-09-27T12:47:08.996Z,21.47
2018-09-27T12:49:39.919Z,21.53
2018-09-27T12:52:10.111Z,21.13
2018-09-27T12:54:39.725Z,21.27
2018-09-27T12:57:09.713Z,21.21
2018-09-27T12:59:39.624Z,21.38
2018-09-27T13:02:10.032Z,21.50
2018-09-27T13:04:39.739Z,21.80
2018-09-27T13:07:09.730Z,21.79
2018-09-27T13:09:39.507Z,21.63
2018-09-27T13:12:09.605Z,21.59
2018-09-27T13:14:39.506Z,21.79
2018-09-27T13:17:09.366Z,21.89
2018-09-27T13:19:39.238Z,21.97
2018-09-27T13:22:09.050Z,22.07
2018-09-27T13:24:38.958Z,22.14
2018-09-27T13:27:08.856Z,22.07
2018-09-27T13:29:38.634Z,22.35
2018-09-27T13:32:08.666Z,21.81
2018-09-27T13:34:38.581Z,22.03
2018-09-27T13:37:08.577Z,22.42
2018-09-27T13:39:38.489Z,22.27
2018-09-27T13:42:08.744Z,22.24
2018-09-27T13:44:38.753Z,22.38
2018-09-27T13:47:08.621Z,22.63
2018-09-27T13:49:38.478Z,22.65
2018-09-27T13:52:08.697Z,22.62
2018-09-27T13:54:38.627Z,22.55
2018-09-27T13:57:08.835Z,22.65
2018-09-27T13:59:38.976Z,22.37
2018-09-27T14:02:08.844Z,22.53
2018-09-27T14:04:38.736Z,22.51
2018-09-27T14:07:08.670Z,22.58
2018-09-27T14:09:38.652Z,22.65
2018-09-27T14:12:08.611Z,22.75
2018-09-27T14:14:38.669Z,22.77
2018-09-27T14:17:08.459Z,22.85
2018-09-27T14:19:38.445Z,22.85
2018-09-27T14:22:08.340Z,22.76
2018-09-27T14:24:38.295Z,22.76
2018-09-27T14:27:08.309Z,22.89
2018-09-27T14:29:38.193Z,22.92
2018-09-27T14:32:08.178Z,22.72
2018-09-27T14:34:38.154Z,22.76
2018-09-27T14:37:08.222Z,22.69
2018-09-27T14:39:38.168Z,22.75
2018-09-27T14:42:09.141Z,22.77
2018-09-27T14:44:39.121Z,22.84
2018-09-27T14:47:09.184Z,22.80
2018-09-27T14:49:39.076Z,22.95
2018-09-27T14:52:09.945Z,22.74
2018-09-27T14:54:39.828Z,22.89
2018-09-27T14:57:09.892Z,23.21
2018-09-27T14:59:39.763Z,22.83
2018-09-27T15:02:09.688Z,22.81
2018-09-27T15:04:39.793Z,22.84
2018-09-27T15:07:09.735Z,23.23
2018-09-27T15:09:40.394Z,23.04
2018-09-27T15:12:10.204Z,23.10
2018-09-27T15:14:40.341Z,22.98
2018-09-27T15:17:10.479Z,22.74
2018-09-27T15:19:40.333Z,22.98
2018-09-27T15:22:10.341Z,22.76
2018-09-27T15:24:40.395Z,22.72
2018-09-27T15:27:10.481Z,22.87
2018-09-27T15:29:40.438Z,22.93
2018-09-27T15:32:10.334Z,22.77
2018-09-27T15:34:40.325Z,22.82
2018-09-27T15:37:10.363Z,23.17
2018-09-27T15:39:40.242Z,23.00
2018-09-27T15:42:10.385Z,23.02
2018-09-27T15:44:40.347Z,22.75
2018-09-27T15:47:10.450Z,22.62
2018-09-27T15:49:40.432Z,22.77
2018-09-27T15:52:10.479Z,22.55
2018-09-27T15:54:40.332Z,22.42
2018-09-27T15:57:10.292Z,22.05
2018-09-27T15:59:40.447Z,22.07
2018-09-27T16:02:10.513Z,22.11
2018-09-27T16:04:40.333Z,21.84
2018-09-27T16:07:11.075Z,22.04
2018-09-27T16:09:40.996Z,21.97
2018-09-27T16:12:10.980Z,21.96
2018-09-27T16:14:43.286Z,21.69
2018-09-27T16:17:13.549Z,21.69
2018-09-27T16:19:44.117Z,21.47
2018-09-27T16:22:14.120Z,21.34
2018-09-27T16:24:44.128Z,21.37
2018-09-27T16:27:40.137Z,21.16
2018-09-27T16:30:10.235Z,21.21
2018-09-27T16:32:40.337Z,21.04
2018-09-27T16:35:10.490Z,20.84
2018-09-27T16:37:40.366Z,20.57
2018-09-27T16:40:10.415Z,20.75
2018-09-27T16:42:41.377Z,20.21
2018-09-27T16:45:15.844Z,20.09
2018-09-27T16:47:45.783Z,20.01
2018-09-27T16:50:18.662Z,20.30
2018-09-27T16:52:48.661Z,19.75
2018-09-27T16:55:18.841Z,19.98
2018-09-27T16:57:48.725Z,20.14
2018-09-27T17:00:18.717Z,19.86
2018-09-27T17:02:48.722Z,19.52
2018-09-27T17:05:18.690Z,19.74
2018-09-27T17:07:49.384Z,19.90
2018-09-27T17:10:19.937Z,19.84
2018-09-27T17:12:49.955Z,19.98
2018-09-27T17:15:20.215Z,19.87
2018-09-27T17:17:50.356Z,19.87
2018-09-27T17:20:20.317Z,19.92
2018-09-27T17:22:50.314Z,19.50
2018-09-27T17:25:21.368Z,19.45
2018-09-27T17:27:51.445Z,18.88
2018-09-27T17:30:21.563Z,18.29
2018-09-27T17:32:51.474Z,18.55
2018-09-27T17:35:21.344Z,18.59
2018-09-27T17:37:52.781Z,18.77
2018-09-27T17:40:24.153Z,18.66
2018-09-27T17:42:54.060Z,18.41
2018-09-27T17:45:24.093Z,18.10
2018-09-27T17:47:54.091Z,18.30
2018-09-27T17:50:24.205Z,18.33
2018-09-27T17:52:54.441Z,18.36
2018-09-27T17:55:24.520Z,18.26
2018-09-27T17:57:54.386Z,17.65
2018-09-27T18:00:24.322Z,18.00
2018-09-27T18:02:54.207Z,18.27
2018-09-27T18:05:24.315Z,18.35
2018-09-27T18:07:54.179Z,18.64
2018-09-27T18:10:24.241Z,18.73
2018-09-27T18:12:54.044Z,18.74
2018-09-27T18:15:24.024Z,18.48
2018-09-27T18:17:54.193Z,18.44
2018-09-27T18:20:23.934Z,17.58
2018-09-27T18:22:53.928Z,17.40
2018-09-27T18:25:23.808Z,17.74
2018-09-27T18:27:53.995Z,18.10
2018-09-27T18:30:26.111Z,18.29
2018-09-27T18:32:57.737Z,18.26
2018-09-27T18:35:28.838Z,18.14
2018-09-27T18:37:59.451Z,17.45
2018-09-27T18:40:30.814Z,17.54
2018-09-27T18:43:12.718Z,17.89
2018-09-27T18:45:52.747Z,18.03
2018-09-27T18:48:42.279Z,18.07
2018-09-27T18:57:46.676Z,17.62
2018-09-27T19:00:16.612Z,17.66
2018-09-27T19:02:46.491Z,17.76
2018-09-27T19:05:41.143Z,17.43
2018-09-27T19:11:06.622Z,17.40
2018-09-27T19:13:42.816Z,17.55
2018-09-27T19:22:24.706Z,17.26
2018-09-27T19:25:03.915Z,16.95
2018-09-27T19:27:35.103Z,17.14
2018-09-27T19:30:25.419Z,17.04
2018-09-27T19:33:08.677Z,16.57
2018-09-27T19:35:39.245Z,16.66
2018-09-27T19:38:13.295Z,16.18
2018-09-27T19:40:46.938Z,15.98
2018-09-27T19:43:27.252Z,16.13
2018-09-27T19:46:11.130Z,16.47
2018-09-27T19:48:41.436Z,16.75
2018-09-27T19:51:11.377Z,16.69
2018-09-27T19:53:42.244Z,16.04
2018-09-27T19:56:12.193Z,16.41
2018-09-27T19:58:41.994Z,16.10
2018-09-27T20:01:12.143Z,16.24
2018-09-27T20:03:42.358Z,16.51
2018-09-27T20:06:12.235Z,16.67
2018-09-27T20:08:42.963Z,16.73
2018-09-27T20:14:14.197Z,16.04
2018-09-27T20:16:46.677Z,16.10
2018-09-27T20:19:19.456Z,15.81
2018-09-27T20:21:54.315Z,15.33
2018-09-27T20:24:28.527Z,15.01
2018-09-27T20:27:00.139Z,14.79
2018-09-27T20:29:46.268Z,15.30
2018-09-27T20:32:32.067Z,15.14
2018-09-27T20:35:01.853Z,15.76
2018-09-27T20:37:33.355Z,15.89
2018-09-27T20:40:08.847Z,15.58
2018-09-27T20:42:42.210Z,15.63
2018-09-27T20:45:14.721Z,15.26
2018-09-27T20:47:57.378Z,14.88
2018-09-27T20:50:44.201Z,14.93
2018-09-27T20:56:09.191Z,15.32
2018-09-27T20:58:53.009Z,15.34
2018-09-27T21:01:24.679Z,14.53
2018-09-27T21:03:56.314Z,14.02
2018-09-27T21:06:30.902Z,14.16
2018-09-27T21:09:00.639Z,14.35
2018-09-27T21:11:30.571Z,14.86
2018-09-27T21:14:00.520Z,14.97
2018-09-27T21:16:30.341Z,15.23
2018-09-27T21:19:01.265Z,14.41
2018-09-27T21:21:31.578Z,13.91
2018-09-27T21:24:01.375Z,13.85
2018-09-27T21:26:31.472Z,14.22
2018-09-27T21:29:04.631Z,14.26
2018-09-27T21:31:35.496Z,14.74
2018-09-27T21:34:05.485Z,14.52
2018-09-27T21:36:35.555Z,14.80
2018-09-27T21:39:07.022Z,13.59
2018-09-27T21:41:37.075Z,13.86
2018-09-27T21:44:11.528Z,13.90
2018-09-27T21:46:41.268Z,13.89
2018-09-27T21:49:12.431Z,14.17
2018-09-27T21:51:43.774Z,14.38
2018-09-27T21:54:13.695Z,14.25
2018-09-27T21:56:43.747Z,14.40
2018-09-27T21:59:13.627Z,13.54
2018-09-27T22:01:43.344Z,14.25
2018-09-27T22:04:13.108Z,13.57
2018-09-27T22:06:43.371Z,13.22
2018-09-27T22:09:13.266Z,12.72
2018-09-27T22:11:43.087Z,13.26
2018-09-27T22:14:13.022Z,13.97
2018-09-27T22:16:42.807Z,13.69
2018-09-27T22:19:12.675Z,13.70
2018-09-27T22:21:44.802Z,12.97
2018-09-27T22:24:14.718Z,12.72
2018-09-27T22:26:44.523Z,12.97
2018-09-27T22:29:14.415Z,12.04
2018-09-27T22:31:44.393Z,12.72
2018-09-27T22:34:14.143Z,12.98
2018-09-27T22:36:44.004Z,13.24
2018-09-27T22:39:13.730Z,13.69
2018-09-27T22:41:43.605Z,12.58
2018-09-27T22:44:13.388Z,12.26
2018-09-27T22:46:47.053Z,12.07
2018-09-27T22:49:17.323Z,12.09
2018-09-27T22:51:47.114Z,12.33
2018-09-27T22:54:19.038Z,12.47
2018-09-27T22:56:49.111Z,12.91
2018-09-27T22:59:19.083Z,13.28
2018-09-27T23:01:48.825Z,13.54
2018-09-27T23:04:18.748Z,13.62
2018-09-27T23:06:48.952Z,12.59
2018-09-27T23:09:18.756Z,12.28
2018-09-27T23:11:48.545Z,11.68
2018-09-27T23:14:18.249Z,11.78
2018-09-27T23:16:48.331Z,12.19
2018-09-27T23:19:18.369Z,12.30
2018-09-27T23:21:48.146Z,12.56
2018-09-27T23:24:18.023Z,12.70
2018-09-27T23:26:48.029Z,12.08
2018-09-27T23:29:20.160Z,11.97
2018-09-27T23:31:50.212Z,12.23
2018-09-27T23:34:21.274Z,12.42
2018-09-27T23:36:51.046Z,11.71
2018-09-27T23:39:21.624Z,11.84
2018-09-27T23:41:51.542Z,11.95
2018-09-27T23:44:21.709Z,12.56
2018-09-27T23:46:51.607Z,12.60
2018-09-27T23:49:21.467Z,11.89
2018-09-27T23:51:51.403Z,11.59
2018-09-27T23:54:21.384Z,11.09
2018-09-27T23:56:51.489Z,11.45
2018-09-27T23:59:21.456Z,11.24
